Terminal Aerodrome Forecast
Issued by NWS

Home | Current Version | Previous Version | Text Only | Print | Product List | Glossary On
Versions: 1 2 3 4 5 6 7 8 9 10 11 12 13 14 15 16 17 18 19 20 21 22 23 24
000
FTUS45 KGGW 190500
TAFOLF
TAF
KOLF 190528Z 1906/2006 30010KT P6SM FEW250
     FM191100 29010KT P6SM FEW050
     FM191500 31016G25KT P6SM SCT026
     FM192200 33020G31KT P6SM SCT250
     FM200300 34012KT P6SM SCT090=

USA.gov is the U.S. government's official web portal to all federal, state and local government web resources and services.